sensor_id;sensor_type;location;lat;lon;timestamp;temperature;humidity
73780;SHT30;62093;37.614;15.072;2023-06-24T00:02:16;24.36;61.04
73780;SHT30;62093;37.614;15.072;2023-06-24T00:04:41;24.36;61.04
73780;SHT30;62093;37.614;15.072;2023-06-24T00:07:07;24.37;61.04
73780;SHT30;62093;37.614;15.072;2023-06-24T00:09:33;24.38;61.09
73780;SHT30;62093;37.614;15.072;2023-06-24T00:11:59;24.36;61.11
73780;SHT30;62093;37.614;15.072;2023-06-24T00:14:26;24.36;61.14
73780;SHT30;62093;37.614;15.072;2023-06-24T00:16:55;24.34;61.11
73780;SHT30;62093;37.614;15.072;2023-06-24T00:19:23;24.34;61.17
73780;SHT30;62093;37.614;15.072;2023-06-24T00:21:50;24.34;61.17
73780;SHT30;62093;37.614;15.072;2023-06-24T00:24:20;24.33;61.14
73780;SHT30;62093;37.614;15.072;2023-06-24T00:26:46;24.33;61.18
73780;SHT30;62093;37.614;15.072;2023-06-24T00:29:13;24.33;61.17
73780;SHT30;62093;37.614;15.072;2023-06-24T00:31:39;24.36;61.15
73780;SHT30;62093;37.614;15.072;2023-06-24T00:34:04;24.33;61.17
73780;SHT30;62093;37.614;15.072;2023-06-24T00:36:30;24.33;61.17
73780;SHT30;62093;37.614;15.072;2023-06-24T00:39:01;24.33;61.20
73780;SHT30;62093;37.614;15.072;2023-06-24T00:41:33;24.31;61.21
73780;SHT30;62093;37.614;15.072;2023-06-24T00:43:59;24.31;61.24
73780;SHT30;62093;37.614;15.072;2023-06-24T00:46:26;24.30;61.21
73780;SHT30;62093;37.614;15.072;2023-06-24T00:48:55;24.30;61.21
73780;SHT30;62093;37.614;15.072;2023-06-24T00:51:21;24.31;61.20
73780;SHT30;62093;37.614;15.072;2023-06-24T00:53:55;24.30;61.24
73780;SHT30;62093;37.614;15.072;2023-06-24T00:56:35;24.27;61.26
73780;SHT30;62093;37.614;15.072;2023-06-24T00:59:12;24.28;61.28
73780;SHT30;62093;37.614;15.072;2023-06-24T01:01:39;24.28;61.22
73780;SHT30;62093;37.614;15.072;2023-06-24T01:04:06;24.30;61.27
73780;SHT30;62093;37.614;15.072;2023-06-24T01:06:35;24.28;61.27
73780;SHT30;62093;37.614;15.072;2023-06-24T01:09:02;24.27;61.28
73780;SHT30;62093;37.614;15.072;2023-06-24T01:11:29;24.27;61.29
73780;SHT30;62093;37.614;15.072;2023-06-24T01:13:56;24.28;61.27
73780;SHT30;62093;37.614;15.072;2023-06-24T01:16:26;24.27;61.30
73780;SHT30;62093;37.614;15.072;2023-06-24T01:19:04;24.27;61.30
73780;SHT30;62093;37.614;15.072;2023-06-24T01:22:19;24.27;61.30
73780;SHT30;62093;37.614;15.072;2023-06-24T01:25:17;24.26;61.32
73780;SHT30;62093;37.614;15.072;2023-06-24T01:33:58;24.28;61.33
73780;SHT30;62093;37.614;15.072;2023-06-24T01:36:28;24.24;61.34
73780;SHT30;62093;37.614;15.072;2023-06-24T01:39:04;24.24;61.37
73780;SHT30;62093;37.614;15.072;2023-06-24T01:41:36;24.26;61.36
73780;SHT30;62093;37.614;15.072;2023-06-24T01:44:10;24.24;61.36
73780;SHT30;62093;37.614;15.072;2023-06-24T01:46:41;24.23;61.36
73780;SHT30;62093;37.614;15.072;2023-06-24T01:49:12;24.23;61.37
73780;SHT30;62093;37.614;15.072;2023-06-24T01:51:38;24.23;61.40
73780;SHT30;62093;37.614;15.072;2023-06-24T01:54:10;24.23;61.41
73780;SHT30;62093;37.614;15.072;2023-06-24T01:56:37;24.24;61.40
73780;SHT30;62093;37.614;15.072;2023-06-24T01:59:04;24.23;61.45
73780;SHT30;62093;37.614;15.072;2023-06-24T02:01:35;24.23;61.41
73780;SHT30;62093;37.614;15.072;2023-06-24T02:04:03;24.21;61.44
73780;SHT30;62093;37.614;15.072;2023-06-24T02:06:30;24.20;61.46
73780;SHT30;62093;37.614;15.072;2023-06-24T02:08:58;24.21;61.43
73780;SHT30;62093;37.614;15.072;2023-06-24T02:11:28;24.21;61.49
73780;SHT30;62093;37.614;15.072;2023-06-24T02:13:55;24.17;61.48
73780;SHT30;62093;37.614;15.072;2023-06-24T02:16:22;24.19;61.47
73780;SHT30;62093;37.614;15.072;2023-06-24T02:18:49;24.21;61.46
73780;SHT30;62093;37.614;15.072;2023-06-24T02:21:18;24.19;61.51
73780;SHT30;62093;37.614;15.072;2023-06-24T02:23:46;24.20;61.54
73780;SHT30;62093;37.614;15.072;2023-06-24T02:26:15;24.17;61.53
73780;SHT30;62093;37.614;15.072;2023-06-24T02:28:43;24.20;61.52
73780;SHT30;62093;37.614;15.072;2023-06-24T02:31:10;24.17;61.51
73780;SHT30;62093;37.614;15.072;2023-06-24T02:33:38;24.19;61.54
73780;SHT30;62093;37.614;15.072;2023-06-24T02:36:04;24.19;61.55
73780;SHT30;62093;37.614;15.072;2023-06-24T02:38:30;24.17;61.59
73780;SHT30;62093;37.614;15.072;2023-06-24T02:40:56;24.17;61.55
73780;SHT30;62093;37.614;15.072;2023-06-24T02:43:23;24.17;61.55
73780;SHT30;62093;37.614;15.072;2023-06-24T02:45:49;24.14;61.55
73780;SHT30;62093;37.614;15.072;2023-06-24T02:48:16;24.17;61.56
73780;SHT30;62093;37.614;15.072;2023-06-24T02:50:43;24.13;61.60
73780;SHT30;62093;37.614;15.072;2023-06-24T02:53:14;24.17;61.57
73780;SHT30;62093;37.614;15.072;2023-06-24T02:55:41;24.13;61.60
73780;SHT30;62093;37.614;15.072;2023-06-24T02:58:09;24.16;61.58
73780;SHT30;62093;37.614;15.072;2023-06-24T03:01:01;24.16;61.62
73780;SHT30;62093;37.614;15.072;2023-06-24T03:03:31;24.14;61.55
73780;SHT30;62093;37.614;15.072;2023-06-24T03:05:58;24.13;61.64
73780;SHT30;62093;37.614;15.072;2023-06-24T03:08:26;24.13;61.58
73780;SHT30;62093;37.614;15.072;2023-06-24T03:10:56;24.13;61.63
73780;SHT30;62093;37.614;15.072;2023-06-24T03:13:24;24.13;61.63
73780;SHT30;62093;37.614;15.072;2023-06-24T03:15:57;24.10;61.61
73780;SHT30;62093;37.614;15.072;2023-06-24T03:18:24;24.12;61.66
73780;SHT30;62093;37.614;15.072;2023-06-24T03:20:50;24.10;61.65
73780;SHT30;62093;37.614;15.072;2023-06-24T03:23:21;24.10;61.63
73780;SHT30;62093;37.614;15.072;2023-06-24T03:25:47;24.09;61.67
73780;SHT30;62093;37.614;15.072;2023-06-24T03:28:15;24.10;61.69
73780;SHT30;62093;37.614;15.072;2023-06-24T03:30:49;24.10;61.65
73780;SHT30;62093;37.614;15.072;2023-06-24T03:33:18;24.09;61.70
73780;SHT30;62093;37.614;15.072;2023-06-24T03:35:45;24.10;61.72
73780;SHT30;62093;37.614;15.072;2023-06-24T03:38:14;24.10;61.68
73780;SHT30;62093;37.614;15.072;2023-06-24T03:40:41;24.10;61.70
73780;SHT30;62093;37.614;15.072;2023-06-24T03:43:06;24.09;61.72
73780;SHT30;62093;37.614;15.072;2023-06-24T03:45:33;24.05;61.76
73780;SHT30;62093;37.614;15.072;2023-06-24T03:47:59;24.10;61.70
73780;SHT30;62093;37.614;15.072;2023-06-24T03:50:25;24.07;61.70
73780;SHT30;62093;37.614;15.072;2023-06-24T03:52:51;24.06;61.73
73780;SHT30;62093;37.614;15.072;2023-06-24T03:55:17;24.07;61.73
73780;SHT30;62093;37.614;15.072;2023-06-24T03:57:43;24.07;61.73
73780;SHT30;62093;37.614;15.072;2023-06-24T04:00:10;24.07;61.71
73780;SHT30;62093;37.614;15.072;2023-06-24T04:02:42;24.09;61.73
73780;SHT30;62093;37.614;15.072;2023-06-24T04:05:09;24.05;61.74
73780;SHT30;62093;37.614;15.072;2023-06-24T04:07:35;24.05;61.75
73780;SHT30;62093;37.614;15.072;2023-06-24T04:10:04;24.06;61.78
73780;SHT30;62093;37.614;15.072;2023-06-24T04:12:36;24.06;61.76
73780;SHT30;62093;37.614;15.072;2023-06-24T04:15:03;24.06;61.79
73780;SHT30;62093;37.614;15.072;2023-06-24T04:17:30;24.07;61.74
73780;SHT30;62093;37.614;15.072;2023-06-24T04:19:58;24.06;61.77
73780;SHT30;62093;37.614;15.072;2023-06-24T04:22:25;24.07;61.74
73780;SHT30;62093;37.614;15.072;2023-06-24T04:24:54;24.06;61.79
73780;SHT30;62093;37.614;15.072;2023-06-24T04:27:20;24.05;61.76
73780;SHT30;62093;37.614;15.072;2023-06-24T04:29:46;24.07;61.73
73780;SHT30;62093;37.614;15.072;2023-06-24T04:32:11;24.05;61.78
73780;SHT30;62093;37.614;15.072;2023-06-24T04:34:37;24.06;61.80
73780;SHT30;62093;37.614;15.072;2023-06-24T04:37:03;24.06;61.83
73780;SHT30;62093;37.614;15.072;2023-06-24T04:39:30;24.05;61.78
73780;SHT30;62093;37.614;15.072;2023-06-24T04:41:56;24.03;61.84
73780;SHT30;62093;37.614;15.072;2023-06-24T04:44:22;24.02;61.84
73780;SHT30;62093;37.614;15.072;2023-06-24T04:46:48;24.02;61.86
73780;SHT30;62093;37.614;15.072;2023-06-24T04:49:13;24.05;61.87
73780;SHT30;62093;37.614;15.072;2023-06-24T04:51:40;24.03;61.85
73780;SHT30;62093;37.614;15.072;2023-06-24T04:54:06;24.02;61.85
73780;SHT30;62093;37.614;15.072;2023-06-24T04:56:33;24.02;61.86
73780;SHT30;62093;37.614;15.072;2023-06-24T04:59:00;24.05;61.88
73780;SHT30;62093;37.614;15.072;2023-06-24T05:01:26;24.03;61.86
73780;SHT30;62093;37.614;15.072;2023-06-24T05:03:52;24.02;61.87
73780;SHT30;62093;37.614;15.072;2023-06-24T05:06:18;24.05;61.86
73780;SHT30;62093;37.614;15.072;2023-06-24T05:08:43;24.02;61.86
73780;SHT30;62093;37.614;15.072;2023-06-24T05:11:09;24.03;61.86
73780;SHT30;62093;37.614;15.072;2023-06-24T05:13:37;24.03;61.91
73780;SHT30;62093;37.614;15.072;2023-06-24T05:16:03;24.02;61.86
73780;SHT30;62093;37.614;15.072;2023-06-24T05:18:29;24.05;61.88
73780;SHT30;62093;37.614;15.072;2023-06-24T05:20:55;24.05;61.87
73780;SHT30;62093;37.614;15.072;2023-06-24T05:23:21;24.06;61.91
73780;SHT30;62093;37.614;15.072;2023-06-24T05:25:46;24.03;61.89
73780;SHT30;62093;37.614;15.072;2023-06-24T05:28:12;24.05;61.87
73780;SHT30;62093;37.614;15.072;2023-06-24T05:30:38;24.05;61.91
73780;SHT30;62093;37.614;15.072;2023-06-24T05:33:04;24.03;61.89
73780;SHT30;62093;37.614;15.072;2023-06-24T05:35:30;24.05;61.89
73780;SHT30;62093;37.614;15.072;2023-06-24T05:37:55;24.02;61.89
73780;SHT30;62093;37.614;15.072;2023-06-24T05:40:21;24.05;61.89
73780;SHT30;62093;37.614;15.072;2023-06-24T05:42:47;24.05;61.94
73780;SHT30;62093;37.614;15.072;2023-06-24T05:45:13;24.05;61.90
73780;SHT30;62093;37.614;15.072;2023-06-24T05:47:39;24.05;61.92
73780;SHT30;62093;37.614;15.072;2023-06-24T05:50:05;24.05;61.91
73780;SHT30;62093;37.614;15.072;2023-06-24T05:52:31;24.07;61.92
73780;SHT30;62093;37.614;15.072;2023-06-24T05:54:57;24.06;61.93
73780;SHT30;62093;37.614;15.072;2023-06-24T05:57:22;24.06;61.92
73780;SHT30;62093;37.614;15.072;2023-06-24T05:59:48;24.05;61.95
73780;SHT30;62093;37.614;15.072;2023-06-24T06:02:14;24.05;61.91
73780;SHT30;62093;37.614;15.072;2023-06-24T06:04:40;24.03;61.95
73780;SHT30;62093;37.614;15.072;2023-06-24T06:07:05;24.07;61.92
73780;SHT30;62093;37.614;15.072;2023-06-24T06:09:31;24.05;61.97
73780;SHT30;62093;37.614;15.072;2023-06-24T06:11:57;24.05;61.92
73780;SHT30;62093;37.614;15.072;2023-06-24T06:14:23;24.06;61.98
73780;SHT30;62093;37.614;15.072;2023-06-24T06:16:49;24.06;61.92
73780;SHT30;62093;37.614;15.072;2023-06-24T06:19:15;24.06;61.92
73780;SHT30;62093;37.614;15.072;2023-06-24T06:21:40;24.06;61.92
73780;SHT30;62093;37.614;15.072;2023-06-24T06:24:06;24.06;61.94
73780;SHT30;62093;37.614;15.072;2023-06-24T06:26:32;24.07;61.92
73780;SHT30;62093;37.614;15.072;2023-06-24T06:28:58;24.05;61.97
73780;SHT30;62093;37.614;15.072;2023-06-24T06:31:24;24.07;61.94
73780;SHT30;62093;37.614;15.072;2023-06-24T06:33:51;24.07;61.93
73780;SHT30;62093;37.614;15.072;2023-06-24T06:36:17;24.10;61.94
73780;SHT30;62093;37.614;15.072;2023-06-24T06:38:43;24.07;61.92
73780;SHT30;62093;37.614;15.072;2023-06-24T06:41:17;24.07;61.93
73780;SHT30;62093;37.614;15.072;2023-06-24T06:44:09;24.07;61.92
73780;SHT30;62093;37.614;15.072;2023-06-24T06:46:45;24.09;61.93
73780;SHT30;62093;37.614;15.072;2023-06-24T06:49:32;24.10;61.91
73780;SHT30;62093;37.614;15.072;2023-06-24T06:52:06;24.09;61.92
73780;SHT30;62093;37.614;15.072;2023-06-24T06:54:39;24.09;61.88
73780;SHT30;62093;37.614;15.072;2023-06-24T06:57:06;24.07;61.91
73780;SHT30;62093;37.614;15.072;2023-06-24T06:59:35;24.07;61.95
73780;SHT30;62093;37.614;15.072;2023-06-24T07:02:07;24.10;61.94
73780;SHT30;62093;37.614;15.072;2023-06-24T07:04:45;24.10;61.90
73780;SHT30;62093;37.614;15.072;2023-06-24T07:07:22;24.12;61.92
73780;SHT30;62093;37.614;15.072;2023-06-24T07:09:57;24.10;61.91
73780;SHT30;62093;37.614;15.072;2023-06-24T07:12:29;24.12;61.88
73780;SHT30;62093;37.614;15.072;2023-06-24T07:15:00;24.12;61.91
73780;SHT30;62093;37.614;15.072;2023-06-24T07:17:27;24.12;61.93
73780;SHT30;62093;37.614;15.072;2023-06-24T07:19:55;24.10;61.90
73780;SHT30;62093;37.614;15.072;2023-06-24T07:22:31;24.12;61.90
73780;SHT30;62093;37.614;15.072;2023-06-24T07:24:59;24.12;61.85
73780;SHT30;62093;37.614;15.072;2023-06-24T07:27:30;24.13;61.90
73780;SHT30;62093;37.614;15.072;2023-06-24T07:30:04;24.13;61.88
73780;SHT30;62093;37.614;15.072;2023-06-24T07:32:35;24.16;61.88
73780;SHT30;62093;37.614;15.072;2023-06-24T07:35:12;24.13;61.88
73780;SHT30;62093;37.614;15.072;2023-06-24T07:37:41;24.13;61.85
73780;SHT30;62093;37.614;15.072;2023-06-24T07:40:09;24.13;61.84
73780;SHT30;62093;37.614;15.072;2023-06-24T07:42:41;24.14;61.82
73780;SHT30;62093;37.614;15.072;2023-06-24T07:45:13;24.14;61.79
73780;SHT30;62093;37.614;15.072;2023-06-24T07:47:42;24.17;61.81
73780;SHT30;62093;37.614;15.072;2023-06-24T07:50:10;24.16;61.77
73780;SHT30;62093;37.614;15.072;2023-06-24T07:52:42;24.17;61.74
73780;SHT30;62093;37.614;15.072;2023-06-24T07:55:14;24.19;61.71
73780;SHT30;62093;37.614;15.072;2023-06-24T07:57:48;24.17;61.74
73780;SHT30;62093;37.614;15.072;2023-06-24T08:00:16;24.19;61.70
73780;SHT30;62093;37.614;15.072;2023-06-24T08:02:46;24.19;61.68
73780;SHT30;62093;37.614;15.072;2023-06-24T08:05:22;24.19;61.70
73780;SHT30;62093;37.614;15.072;2023-06-24T08:07:54;24.17;61.64
73780;SHT30;62093;37.614;15.072;2023-06-24T08:10:25;24.19;61.64
73780;SHT30;62093;37.614;15.072;2023-06-24T08:13:00;24.19;61.61
73780;SHT30;62093;37.614;15.072;2023-06-24T08:15:31;24.20;61.57
73780;SHT30;62093;37.614;15.072;2023-06-24T08:17:59;24.20;61.58
73780;SHT30;62093;37.614;15.072;2023-06-24T08:20:27;24.21;61.56
73780;SHT30;62093;37.614;15.072;2023-06-24T08:22:55;24.23;61.50
73780;SHT30;62093;37.614;15.072;2023-06-24T08:25:23;24.23;61.52
73780;SHT30;62093;37.614;15.072;2023-06-24T08:27:57;24.23;61.46
73780;SHT30;62093;37.614;15.072;2023-06-24T08:30:29;24.24;61.44
73780;SHT30;62093;37.614;15.072;2023-06-24T08:32:59;24.23;61.40
73780;SHT30;62093;37.614;15.072;2023-06-24T08:35:27;24.26;61.41
73780;SHT30;62093;37.614;15.072;2023-06-24T08:37:59;24.24;61.41
73780;SHT30;62093;37.614;15.072;2023-06-24T08:40:29;24.26;61.36
73780;SHT30;62093;37.614;15.072;2023-06-24T08:43:00;24.24;61.36
73780;SHT30;62093;37.614;15.072;2023-06-24T08:45:28;24.26;61.37
73780;SHT30;62093;37.614;15.072;2023-06-24T08:48:01;24.28;61.27
73780;SHT30;62093;37.614;15.072;2023-06-24T08:50:46;24.28;61.24
73780;SHT30;62093;37.614;15.072;2023-06-24T08:53:20;24.27;61.20
73780;SHT30;62093;37.614;15.072;2023-06-24T08:55:53;24.28;61.21
73780;SHT30;62093;37.614;15.072;2023-06-24T08:58:24;24.30;61.13
73780;SHT30;62093;37.614;15.072;2023-06-24T09:00:53;24.31;61.17
73780;SHT30;62093;37.614;15.072;2023-06-24T09:03:22;24.31;61.12
73780;SHT30;62093;37.614;15.072;2023-06-24T09:05:52;24.30;61.15
73780;SHT30;62093;37.614;15.072;2023-06-24T09:08:21;24.33;61.09
73780;SHT30;62093;37.614;15.072;2023-06-24T09:10:54;24.33;61.09
73780;SHT30;62093;37.614;15.072;2023-06-24T09:13:40;24.36;61.11
73780;SHT30;62093;37.614;15.072;2023-06-24T09:16:17;24.33;61.08
73780;SHT30;62093;37.614;15.072;2023-06-24T09:18:51;24.31;61.07
73780;SHT30;62093;37.614;15.072;2023-06-24T09:21:28;24.33;61.06
73780;SHT30;62093;37.614;15.072;2023-06-24T09:23:59;24.37;61.03
73780;SHT30;62093;37.614;15.072;2023-06-24T09:26:28;24.37;61.03
73780;SHT30;62093;37.614;15.072;2023-06-24T09:28:57;24.36;61.03
73780;SHT30;62093;37.614;15.072;2023-06-24T09:31:31;24.34;61.02
73780;SHT30;62093;37.614;15.072;2023-06-24T09:34:03;24.38;61.00
73780;SHT30;62093;37.614;15.072;2023-06-24T09:36:34;24.36;61.00
73780;SHT30;62093;37.614;15.072;2023-06-24T09:39:09;24.34;60.98
73780;SHT30;62093;37.614;15.072;2023-06-24T09:41:42;24.38;60.92
73780;SHT30;62093;37.614;15.072;2023-06-24T09:44:14;24.40;60.94
73780;SHT30;62093;37.614;15.072;2023-06-24T09:46:45;24.38;60.93
73780;SHT30;62093;37.614;15.072;2023-06-24T09:49:17;24.40;60.91
73780;SHT30;62093;37.614;15.072;2023-06-24T09:51:49;24.41;60.96
73780;SHT30;62093;37.614;15.072;2023-06-24T09:54:18;24.43;60.91
73780;SHT30;62093;37.614;15.072;2023-06-24T09:56:54;24.41;60.90
73780;SHT30;62093;37.614;15.072;2023-06-24T09:59:26;24.41;60.91
73780;SHT30;62093;37.614;15.072;2023-06-24T10:01:58;24.44;60.94
73780;SHT30;62093;37.614;15.072;2023-06-24T10:04:32;24.43;60.89
73780;SHT30;62093;37.614;15.072;2023-06-24T10:07:00;24.44;60.86
73780;SHT30;62093;37.614;15.072;2023-06-24T10:09:29;24.44;60.87
73780;SHT30;62093;37.614;15.072;2023-06-24T10:12:00;24.43;60.88
73780;SHT30;62093;37.614;15.072;2023-06-24T10:14:30;24.46;60.86
73780;SHT30;62093;37.614;15.072;2023-06-24T10:17:03;24.47;60.83
73780;SHT30;62093;37.614;15.072;2023-06-24T10:19:38;24.47;60.84
73780;SHT30;62093;37.614;15.072;2023-06-24T10:22:14;24.47;60.87
73780;SHT30;62093;37.614;15.072;2023-06-24T10:24:45;24.46;60.84
73780;SHT30;62093;37.614;15.072;2023-06-24T10:27:18;24.46;60.86
73780;SHT30;62093;37.614;15.072;2023-06-24T10:29:50;24.47;60.86
73780;SHT30;62093;37.614;15.072;2023-06-24T10:32:26;24.44;60.86
73780;SHT30;62093;37.614;15.072;2023-06-24T10:34:56;24.44;60.87
73780;SHT30;62093;37.614;15.072;2023-06-24T10:37:35;24.43;60.95
73780;SHT30;62093;37.614;15.072;2023-06-24T10:40:04;24.47;60.93
73780;SHT30;62093;37.614;15.072;2023-06-24T10:42:39;24.47;60.88
73780;SHT30;62093;37.614;15.072;2023-06-24T10:47:48;24.46;60.89
73780;SHT30;62093;37.614;15.072;2023-06-24T10:50:21;24.48;60.87
73780;SHT30;62093;37.614;15.072;2023-06-24T10:52:57;24.47;60.87
73780;SHT30;62093;37.614;15.072;2023-06-24T10:55:30;24.50;60.87
73780;SHT30;62093;37.614;15.072;2023-06-24T10:58:12;24.50;60.88
73780;SHT30;62093;37.614;15.072;2023-06-24T11:00:44;24.48;60.87
73780;SHT30;62093;37.614;15.072;2023-06-24T11:03:18;24.48;60.89
73780;SHT30;62093;37.614;15.072;2023-06-24T11:05:56;24.50;60.87
73780;SHT30;62093;37.614;15.072;2023-06-24T11:08:27;24.48;60.90
73780;SHT30;62093;37.614;15.072;2023-06-24T11:10:58;24.48;60.91
73780;SHT30;62093;37.614;15.072;2023-06-24T11:13:39;24.47;60.90
73780;SHT30;62093;37.614;15.072;2023-06-24T11:16:14;24.50;60.89
73780;SHT30;62093;37.614;15.072;2023-06-24T11:18:45;24.51;60.89
73780;SHT30;62093;37.614;15.072;2023-06-24T11:21:15;24.51;60.91
73780;SHT30;62093;37.614;15.072;2023-06-24T11:23:49;24.50;60.90
73780;SHT30;62093;37.614;15.072;2023-06-24T11:26:18;24.51;60.89
73780;SHT30;62093;37.614;15.072;2023-06-24T11:28:49;24.54;60.90
73780;SHT30;62093;37.614;15.072;2023-06-24T11:31:26;24.53;60.90
73780;SHT30;62093;37.614;15.072;2023-06-24T11:33:58;24.50;60.90
73780;SHT30;62093;37.614;15.072;2023-06-24T11:36:26;24.51;60.95
73780;SHT30;62093;37.614;15.072;2023-06-24T11:39:00;24.51;60.91
73780;SHT30;62093;37.614;15.072;2023-06-24T11:41:31;24.53;60.94
73780;SHT30;62093;37.614;15.072;2023-06-24T11:44:05;24.51;60.94
73780;SHT30;62093;37.614;15.072;2023-06-24T11:46:37;24.53;60.95
73780;SHT30;62093;37.614;15.072;2023-06-24T11:49:09;24.53;60.94
73780;SHT30;62093;37.614;15.072;2023-06-24T11:51:48;24.53;60.95
73780;SHT30;62093;37.614;15.072;2023-06-24T11:54:20;24.51;60.92
73780;SHT30;62093;37.614;15.072;2023-06-24T11:56:51;24.54;60.95
73780;SHT30;62093;37.614;15.072;2023-06-24T11:59:22;24.54;60.93
73780;SHT30;62093;37.614;15.072;2023-06-24T12:01:54;24.54;60.96
73780;SHT30;62093;37.614;15.072;2023-06-24T12:04:29;24.53;60.94
73780;SHT30;62093;37.614;15.072;2023-06-24T12:07:00;24.54;60.96
73780;SHT30;62093;37.614;15.072;2023-06-24T12:09:28;24.53;60.98
73780;SHT30;62093;37.614;15.072;2023-06-24T12:12:00;24.54;60.96
73780;SHT30;62093;37.614;15.072;2023-06-24T12:14:31;24.54;60.98
73780;SHT30;62093;37.614;15.072;2023-06-24T12:17:05;24.54;60.97
73780;SHT30;62093;37.614;15.072;2023-06-24T12:19:38;24.54;61.00
73780;SHT30;62093;37.614;15.072;2023-06-24T12:22:06;24.54;60.97
73780;SHT30;62093;37.614;15.072;2023-06-24T12:24:35;24.56;60.98
73780;SHT30;62093;37.614;15.072;2023-06-24T12:27:13;24.53;60.99
73780;SHT30;62093;37.614;15.072;2023-06-24T12:29:47;24.53;61.01
73780;SHT30;62093;37.614;15.072;2023-06-24T12:32:18;24.53;61.02
73780;SHT30;62093;37.614;15.072;2023-06-24T12:34:51;24.53;61.03
73780;SHT30;62093;37.614;15.072;2023-06-24T12:37:23;24.51;61.02
73780;SHT30;62093;37.614;15.072;2023-06-24T12:39:54;24.53;61.02
73780;SHT30;62093;37.614;15.072;2023-06-24T12:42:25;24.53;61.04
73780;SHT30;62093;37.614;15.072;2023-06-24T12:44:52;24.53;61.06
73780;SHT30;62093;37.614;15.072;2023-06-24T12:47:30;24.54;61.05
73780;SHT30;62093;37.614;15.072;2023-06-24T12:50:04;24.54;61.05
73780;SHT30;62093;37.614;15.072;2023-06-24T12:52:41;24.54;61.05
73780;SHT30;62093;37.614;15.072;2023-06-24T12:55:15;24.51;61.05
73780;SHT30;62093;37.614;15.072;2023-06-24T12:57:46;24.53;61.05
73780;SHT30;62093;37.614;15.072;2023-06-24T13:00:23;24.51;61.05
73780;SHT30;62093;37.614;15.072;2023-06-24T13:03:07;24.56;61.07
73780;SHT30;62093;37.614;15.072;2023-06-24T13:05:36;24.53;61.07
73780;SHT30;62093;37.614;15.072;2023-06-24T13:08:04;24.51;61.10
73780;SHT30;62093;37.614;15.072;2023-06-24T13:10:33;24.54;61.10
73780;SHT30;62093;37.614;15.072;2023-06-24T13:13:05;24.54;61.10
73780;SHT30;62093;37.614;15.072;2023-06-24T13:15:36;24.54;61.08
73780;SHT30;62093;37.614;15.072;2023-06-24T13:18:04;24.50;61.11
73780;SHT30;62093;37.614;15.072;2023-06-24T13:20:32;24.53;61.11
73780;SHT30;62093;37.614;15.072;2023-06-24T13:23:00;24.54;61.14
73780;SHT30;62093;37.614;15.072;2023-06-24T13:25:31;24.54;61.14
73780;SHT30;62093;37.614;15.072;2023-06-24T13:28:01;24.53;61.12
73780;SHT30;62093;37.614;15.072;2023-06-24T13:30:35;24.51;61.13
73780;SHT30;62093;37.614;15.072;2023-06-24T13:33:03;24.54;61.14
73780;SHT30;62093;37.614;15.072;2023-06-24T13:35:33;24.56;61.14
73780;SHT30;62093;37.614;15.072;2023-06-24T13:37:59;24.56;61.14
73780;SHT30;62093;37.614;15.072;2023-06-24T13:40:25;24.57;61.10
73780;SHT30;62093;37.614;15.072;2023-06-24T13:42:51;24.57;61.12
73780;SHT30;62093;37.614;15.072;2023-06-24T13:45:16;24.54;61.10
73780;SHT30;62093;37.614;15.072;2023-06-24T13:47:42;24.57;61.16
73780;SHT30;62093;37.614;15.072;2023-06-24T13:50:09;24.57;61.13
73780;SHT30;62093;37.614;15.072;2023-06-24T13:52:34;24.57;61.14
73780;SHT30;62093;37.614;15.072;2023-06-24T13:55:00;24.58;61.12
73780;SHT30;62093;37.614;15.072;2023-06-24T13:57:26;24.57;61.13
73780;SHT30;62093;37.614;15.072;2023-06-24T13:59:52;24.61;61.15
73780;SHT30;62093;37.614;15.072;2023-06-24T14:02:18;24.61;61.12
73780;SHT30;62093;37.614;15.072;2023-06-24T14:04:45;24.60;61.13
73780;SHT30;62093;37.614;15.072;2023-06-24T14:07:11;24.63;61.13
73780;SHT30;62093;37.614;15.072;2023-06-24T14:09:38;24.63;61.14
73780;SHT30;62093;37.614;15.072;2023-06-24T14:12:05;24.63;61.11
73780;SHT30;62093;37.614;15.072;2023-06-24T14:14:31;24.63;61.13
73780;SHT30;62093;37.614;15.072;2023-06-24T14:16:57;24.61;61.13
73780;SHT30;62093;37.614;15.072;2023-06-24T14:19:23;24.64;61.12
73780;SHT30;62093;37.614;15.072;2023-06-24T14:21:49;24.63;61.15
73780;SHT30;62093;37.614;15.072;2023-06-24T14:24:15;24.65;61.18
73780;SHT30;62093;37.614;15.072;2023-06-24T14:26:41;24.64;61.14
73780;SHT30;62093;37.614;15.072;2023-06-24T14:29:06;24.65;61.15
73780;SHT30;62093;37.614;15.072;2023-06-24T14:31:32;24.64;61.17
73780;SHT30;62093;37.614;15.072;2023-06-24T14:33:58;24.64;61.14
73780;SHT30;62093;37.614;15.072;2023-06-24T14:36:24;24.68;61.14
73780;SHT30;62093;37.614;15.072;2023-06-24T14:38:49;24.68;61.12
73780;SHT30;62093;37.614;15.072;2023-06-24T14:41:15;24.67;61.13
73780;SHT30;62093;37.614;15.072;2023-06-24T14:43:41;24.68;61.14
73780;SHT30;62093;37.614;15.072;2023-06-24T14:46:07;24.69;61.11
73780;SHT30;62093;37.614;15.072;2023-06-24T14:48:33;24.67;61.10
73780;SHT30;62093;37.614;15.072;2023-06-24T14:50:58;24.69;61.13
73780;SHT30;62093;37.614;15.072;2023-06-24T14:53:24;24.71;61.10
73780;SHT30;62093;37.614;15.072;2023-06-24T14:55:51;24.69;61.07
73780;SHT30;62093;37.614;15.072;2023-06-24T14:58:18;24.69;61.09
73780;SHT30;62093;37.614;15.072;2023-06-24T15:00:44;24.71;61.10
73780;SHT30;62093;37.614;15.072;2023-06-24T15:03:10;24.69;61.10
73780;SHT30;62093;37.614;15.072;2023-06-24T15:05:36;24.74;61.10
73780;SHT30;62093;37.614;15.072;2023-06-24T15:08:01;24.71;61.13
73780;SHT30;62093;37.614;15.072;2023-06-24T15:10:27;24.71;61.07
73780;SHT30;62093;37.614;15.072;2023-06-24T15:12:53;24.71;61.10
73780;SHT30;62093;37.614;15.072;2023-06-24T15:15:19;24.74;61.11
73780;SHT30;62093;37.614;15.072;2023-06-24T15:17:45;24.74;61.09
73780;SHT30;62093;37.614;15.072;2023-06-24T15:20:12;24.74;61.08
73780;SHT30;62093;37.614;15.072;2023-06-24T15:22:38;24.77;61.03
73780;SHT30;62093;37.614;15.072;2023-06-24T15:25:04;24.75;61.05
73780;SHT30;62093;37.614;15.072;2023-06-24T15:27:30;24.77;61.06
73780;SHT30;62093;37.614;15.072;2023-06-24T15:29:56;24.75;61.05
73780;SHT30;62093;37.614;15.072;2023-06-24T15:32:22;24.77;61.05
73780;SHT30;62093;37.614;15.072;2023-06-24T15:34:48;24.77;61.07
73780;SHT30;62093;37.614;15.072;2023-06-24T15:37:14;24.77;61.07
73780;SHT30;62093;37.614;15.072;2023-06-24T15:39:40;24.77;61.09